Tümü
Boggabri Airport YBOG Hava Durumu
There is no TAF data available at YBOG or any nearby airports.
There is no METAR data available at YBOG. Showing METAR data for YGDH (21 mi GD).
Yakın zamandaki GUH METAR geçmişi (YBOG verisi yok)
| Date | Time (AEST) | Flight Rules | Wind Dir. | Speed | Type | Height AGL (ft) | Visibility | Temp (°C) | Temp (°F) | Dew Point (°C) | Dew Point (°F) | Rel. Humid. | Pressure | Density Altitude | Remarks |
|---|---|---|---|---|---|---|---|---|---|---|---|---|---|---|---|
| 09-May | 13:00 | n/a | 110° | 5 kt | Missing | 21° | 69° | 6° | 42° | 38% | 1023 mb | 1.294 ft | |||
| 09-May | 12:00 | n/a | 120° | 6 kt | Missing | 19° | 66° | 6° | 42° | 43% | 1024 mb | 1.024 ft | |||
| 09-May | 11:00 | n/a | 150° | 8 kt | Missing | 17° | 62° | 6° | 42° | 48% | 1024 mb | 784 ft | |||
| 09-May | 10:00 | n/a | 130° | 7 kt | Missing | 14° | 57° | 6° | 42° | 58% | 1025 mb | 395 ft | |||
| 09-May | 09:00 | n/a | 140° | 6 kt | Missing | 11° | 51° | 6° | 42° | 71% | 1025 mb | 35 ft | |||
| 09-May | 08:00 | n/a | 360° | 2 kt | Missing | 8° | 46° | 6° | 42° | 87% | 1025 mb | -325 ft | |||
| 09-May | 07:00 | n/a | 100° | 2 kt | Missing | 3° | 37° | 2° | 35° | 93% | 1024 mb | -896 ft | |||
| 09-May | 06:00 | n/a | 30° | 5 kt | Missing | 2° | 35° | 1° | 33° | 93% | 1023 mb | -986 ft | |||
| 09-May | 05:00 | n/a | 110° | 3 kt | Missing | 3° | 37° | 2° | 35° | 93% | 1023 mb | -866 ft | |||
| 09-May | 04:00 | n/a | 120° | 4 kt | Missing | 4° | 39° | 3° | 37° | 93% | 1023 mb | -746 ft | |||
| 09-May | 03:00 | n/a | 10° | 1 kt | Missing | 3° | 37° | 2° | 35° | 93% | 1023 mb | -866 ft | |||
| 09-May | 02:00 | n/a | 210° | 2 kt | Missing | 5° | 41° | 4° | 39° | 93% | 1023 mb | -626 ft | |||
| 09-May | 01:00 | n/a | Calm | Missing | 4° | 39° | 2° | 35° | 87% | 1023 mb | -746 ft | ||||
| 09-May | 00:00 | n/a | 270° | 3 kt | Missing | 5° | 41° | 4° | 39° | 93% | 1023 mb | -626 ft | |||
| 08-May | 23:00 | n/a | 180° | 3 kt | Missing | 7° | 44° | 4° | 39° | 81% | 1023 mb | -386 ft | |||
| 08-May | 22:00 | n/a | 180° | 1 kt | Missing | 9° | 48° | 4° | 39° | 71% | 1023 mb | -146 ft | |||
| 08-May | 21:00 | n/a | 190° | 5 kt | Missing | 12° | 53° | 5° | 41° | 62% | 1023 mb | 214 ft | |||
| 08-May | 20:00 | n/a | 230° | 11 kt | Missing | 13° | 55° | 5° | 41° | 58% | 1023 mb | 334 ft | |||
| 08-May | 19:00 | n/a | 230° | 12 kt | Missing | 15° | 59° | 5° | 41° | 51% | 1022 mb | 603 ft | |||
| 08-May | 18:00 | n/a | 250° | 7 kt | Missing | 13° | 55° | 4° | 39° | 54% | 1020 mb | 422 ft | |||
| 08-May | 17:00 | n/a | 240° | 8 kt | Missing | 18° | 64° | 3° | 37° | 37% | 1020 mb | 1.022 ft | |||
| 08-May | 16:00 | n/a | 240° | 13 kt | Missing | 19° | 66° | 3° | 37° | 34% | 1020 mb | 1.142 ft | |||
| 08-May | 15:00 | n/a | 250° | 13 kt | Missing | 20° | 68° | 4° | 39° | 35% | 1020 mb | 1.262 ft | |||
| 08-May | 14:00 | n/a | 240° | 12 kt | Missing | 19° | 66° | 3° | 37° | 34% | 1020 mb | 1.142 ft |
Giriş
| Tarayıcınız desteklenmiyor. tarayıcınızı yükseltin |
